Time;durP1;ratioP1;P1;durP2;ratioP2;P2;SDS_P1;SDS_P2;PMS_P1;PMS_P2;Temp;Humidity;BMP_temperature;BMP_pressure;BME280_temperature;BME280_humidity;BME280_pressure;Samples;Min_cycle;Max_cycle;Signal;HPM_P1;HPM_P2
2023/05/23 00:00:58;;;;;;;;;;;;;;;19.76;67.19;100439.38;4122305;28;19925;-69
2023/05/23 00:03:03;;;;;;;;;;;;;;;19.78;67.00;100443.72;4131238;28;20403;-68
2023/05/23 00:05:06;;;;;;;;;;;;;;;19.71;66.99;100440.34;4127141;28;19965;-68
2023/05/23 00:07:09;;;;;;;;;;;;;;;19.64;67.38;100436.13;4130347;28;19938;-68
2023/05/23 00:09:13;;;;;;;;;;;;;;;19.62;67.32;100444.97;4128523;28;19964;-68
2023/05/23 00:11:15;;;;;;;;;;;;;;;19.51;67.59;100440.81;4125796;28;19926;-69
2023/05/23 00:13:18;;;;;;;;;;;;;;;19.53;67.77;100444.28;4131695;28;19921;-69
2023/05/23 00:15:21;;;;;;;;;;;;;;;19.57;67.71;100446.88;4129711;28;19921;-69
2023/05/23 00:17:25;;;;;;;;;;;;;;;19.52;67.57;100447.84;4131322;28;20261;-69
2023/05/23 00:19:29;;;;;;;;;;;;;;;19.61;67.66;100445.84;4130850;28;19969;-68
2023/05/23 00:21:32;;;;;;;;;;;;;;;19.73;66.68;100444.69;4130742;28;19965;-68
2023/05/23 00:23:34;;;;;;;;;;;;;;;19.60;67.03;100444.16;4131249;28;20013;-68
2023/05/23 00:25:39;;;;;;;;;;;;;;;19.48;67.42;100445.31;4130547;28;19921;-69
2023/05/23 00:27:42;;;;;;;;;;;;;;;19.46;67.64;100447.94;4130181;28;19930;-68
2023/05/23 00:29:45;;;;;;;;;;;;;;;19.48;67.26;100448.78;4126728;28;20020;-68
2023/05/23 00:31:48;;;;;;;;;;;;;;;19.40;67.71;100450.72;4128547;28;19991;-69
2023/05/23 00:33:51;;;;;;;;;;;;;;;19.38;68.21;100442.00;4126568;28;19926;-68
2023/05/23 00:35:55;;;;;;;;;;;;;;;19.41;67.83;100443.72;4126543;28;20013;-69
2023/05/23 00:37:58;;;;;;;;;;;;;;;19.35;67.82;100440.28;4131107;28;20012;-69
2023/05/23 00:40:01;;;;;;;;;;;;;;;19.38;67.64;100447.28;4116798;28;19934;-68
2023/05/23 00:42:04;;;;;;;;;;;;;;;19.36;67.89;100442.03;4127166;28;20654;-68
2023/05/23 00:44:08;;;;;;;;;;;;;;;19.31;67.90;100448.31;4128175;28;19921;-69
2023/05/23 00:46:11;;;;;;;;;;;;;;;19.24;68.37;100444.94;4129827;28;19973;-69
2023/05/23 00:48:14;;;;;;;;;;;;;;;19.30;68.14;100441.28;4130917;28;19921;-68
2023/05/23 00:50:17;;;;;;;;;;;;;;;19.32;68.03;100444.78;4128585;28;19928;-69
2023/05/23 00:52:21;;;;;;;;;;;;;;;19.42;67.26;100441.03;4113855;28;20319;-68
2023/05/23 00:54:26;;;;;;;;;;;;;;;19.31;67.41;100449.16;4134385;28;19925;-69
2023/05/23 00:56:29;;;;;;;;;;;;;;;19.21;68.29;100446.78;4130372;28;19934;-69
2023/05/23 00:58:32;;;;;;;;;;;;;;;19.22;68.10;100441.47;4129117;28;19968;-68
2023/05/23 01:00:37;;;;;;;;;;;;;;;19.27;67.91;100446.63;4130444;28;20021;-69
2023/05/23 01:02:41;;;;;;;;;;;;;;;19.23;67.67;100450.22;4112911;28;19973;-69
2023/05/23 01:04:45;;;;;;;;;;;;;;;19.28;67.67;100456.28;4138382;28;19929;-68
2023/05/23 01:06:48;;;;;;;;;;;;;;;19.14;68.07;100446.91;4127057;28;20008;-68
2023/05/23 01:08:52;;;;;;;;;;;;;;;19.12;68.35;100453.13;4134905;28;19934;-69
2023/05/23 01:10:56;;;;;;;;;;;;;;;19.09;68.32;100458.44;4120141;28;19921;-69
2023/05/23 01:13:06;;;;;;;;;;;;;;;19.12;68.23;100448.69;4119150;28;20335;-68
2023/05/23 01:15:10;;;;;;;;;;;;;;;19.16;68.05;100460.91;4127851;28;19922;-69
2023/05/23 01:17:17;;;;;;;;;;;;;;;19.09;68.42;100458.44;4129421;28;19922;-68
2023/05/23 01:19:32;;;;;;;;;;;;;;;19.05;68.53;100451.50;4129301;28;19957;-68
2023/05/23 01:21:35;;;;;;;;;;;;;;;19.03;68.89;100464.72;4129609;28;19964;-69
2023/05/23 01:24:02;;;;;;;;;;;;;;;19.05;68.79;100456.78;4144771;28;19928;-68
2023/05/23 01:26:13;;;;;;;;;;;;;;;19.06;68.72;100453.25;4130301;28;19922;-68
2023/05/23 01:28:19;;;;;;;;;;;;;;;19.06;68.33;100448.84;4128665;28;19928;-68
2023/05/23 01:30:24;;;;;;;;;;;;;;;19.07;68.00;100449.69;4129700;28;20032;-69
2023/05/23 01:32:28;;;;;;;;;;;;;;;18.97;68.74;100451.66;4128553;28;19961;-68
2023/05/23 01:34:34;;;;;;;;;;;;;;;18.92;68.88;100453.53;4129286;28;19922;-68
2023/05/23 01:36:40;;;;;;;;;;;;;;;18.92;69.08;100456.16;4124836;28;19921;-68
2023/05/23 01:38:43;;;;;;;;;;;;;;;18.96;68.93;100460.47;4145276;28;20399;-69
2023/05/23 01:40:45;;;;;;;;;;;;;;;18.93;68.71;100455.25;4144781;28;19921;-69
2023/05/23 01:42:48;;;;;;;;;;;;;;;19.00;68.54;100459.50;4127762;28;20004;-68
2023/05/23 01:44:52;;;;;;;;;;;;;;;19.02;68.29;100462.97;4129416;28;20372;-68
2023/05/23 01:46:55;;;;;;;;;;;;;;;19.00;68.41;100467.41;4126766;28;19922;-68
2023/05/23 01:48:58;;;;;;;;;;;;;;;19.02;67.92;100465.59;4123883;28;20012;-68
2023/05/23 01:51:02;;;;;;;;;;;;;;;18.89;68.64;100469.38;4128769;28;20960;-68
2023/05/23 01:53:05;;;;;;;;;;;;;;;19.00;68.30;100475.31;4128656;28;20299;-68
2023/05/23 01:55:10;;;;;;;;;;;;;;;18.90;68.51;100477.25;4141070;28;20019;-68
2023/05/23 01:57:13;;;;;;;;;;;;;;;18.87;68.61;100477.31;4127552;28;19937;-68
2023/05/23 01:59:17;;;;;;;;;;;;;;;18.83;68.88;100484.38;4128572;28;19922;-68
2023/05/23 02:01:21;;;;;;;;;;;;;;;18.81;69.27;100482.69;4110551;28;20388;-68
2023/05/23 02:03:24;;;;;;;;;;;;;;;18.80;69.07;100473.91;4128421;28;19929;-69
2023/05/23 02:05:27;;;;;;;;;;;;;;;18.84;68.86;100478.22;4140767;28;19921;-69
2023/05/23 02:07:30;;;;;;;;;;;;;;;18.82;69.45;100476.50;4127682;28;19921;-68
2023/05/23 02:09:32;;;;;;;;;;;;;;;18.78;69.05;100473.06;4127493;28;19928;-68
2023/05/23 02:11:35;;;;;;;;;;;;;;;18.76;69.11;100477.50;4143802;28;19953;-68
2023/05/23 02:13:38;;;;;;;;;;;;;;;18.77;69.09;100488.91;4128147;28;20013;-68
2023/05/23 02:15:41;;;;;;;;;;;;;;;18.74;69.33;100492.47;4129935;28;19964;-68
2023/05/23 02:17:47;;;;;;;;;;;;;;;18.78;69.08;100495.94;4129593;28;20000;-68
2023/05/23 02:19:50;;;;;;;;;;;;;;;18.72;69.06;100499.53;4128322;28;20417;-68
2023/05/23 02:21:52;;;;;;;;;;;;;;;18.73;69.42;100490.72;4116031;28;19984;-68
2023/05/23 02:23:55;;;;;;;;;;;;;;;18.69;69.43;100491.69;4129277;28;19921;-67
2023/05/23 02:25:58;;;;;;;;;;;;;;;18.65;69.44;100490.88;4130110;28;19921;-68
2023/05/23 02:28:01;;;;;;;;;;;;;;;18.63;69.89;100489.16;4129466;28;19968;-68
2023/05/23 02:30:04;;;;;;;;;;;;;;;18.62;69.63;100492.72;4127871;28;19921;-68
2023/05/23 02:32:07;;;;;;;;;;;;;;;18.63;69.43;100499.69;4128126;28;19932;-68
2023/05/23 02:34:12;;;;;;;;;;;;;;;18.63;69.43;100503.22;4127483;28;19928;-68
2023/05/23 02:36:15;;;;;;;;;;;;;;;18.69;69.02;100496.97;4108990;28;20012;-69
2023/05/23 02:38:19;;;;;;;;;;;;;;;18.78;68.73;100494.16;4126695;28;19960;-68
2023/05/23 02:40:22;;;;;;;;;;;;;;;18.91;68.26;100496.56;4127907;28;19926;-69
2023/05/23 02:42:24;;;;;;;;;;;;;;;18.75;68.88;100495.94;4128786;28;19976;-69
2023/05/23 02:44:27;;;;;;;;;;;;;;;18.70;69.12;100503.09;4128577;28;19921;-69
2023/05/23 02:46:30;;;;;;;;;;;;;;;18.73;68.82;100503.88;4128276;28;19945;-68
2023/05/23 02:48:33;;;;;;;;;;;;;;;18.64;68.92;100506.69;4127666;28;19968;-69
2023/05/23 02:50:37;;;;;;;;;;;;;;;18.75;68.52;100512.66;4127033;28;19929;-68
2023/05/23 02:52:41;;;;;;;;;;;;;;;18.92;68.13;100503.56;4127621;28;20442;-69
2023/05/23 02:54:43;;;;;;;;;;;;;;;18.83;68.42;100509.84;4124738;28;19922;-69
2023/05/23 02:56:46;;;;;;;;;;;;;;;18.76;68.28;100508.22;4128704;28;19922;-69
2023/05/23 02:58:49;;;;;;;;;;;;;;;18.65;68.28;100506.66;4120785;28;20384;-69
2023/05/23 03:00:51;;;;;;;;;;;;;;;18.62;69.00;100504.09;4124214;28;19932;-68
2023/05/23 03:02:54;;;;;;;;;;;;;;;18.68;68.58;100516.28;4128000;28;19961;-69
2023/05/23 03:04:57;;;;;;;;;;;;;;;18.62;68.85;100516.41;4124495;28;19921;-69
2023/05/23 03:07:02;;;;;;;;;;;;;;;18.68;68.39;100513.66;4127926;28;20343;-68
2023/05/23 03:09:08;;;;;;;;;;;;;;;18.59;68.08;100521.72;4127813;28;20319;-68
2023/05/23 03:11:11;;;;;;;;;;;;;;;18.62;68.05;100519.03;4129082;28;20403;-69
2023/05/23 03:13:14;;;;;;;;;;;;;;;18.68;67.53;100511.03;4129335;28;19926;-69
2023/05/23 03:15:17;;;;;;;;;;;;;;;18.52;68.44;100518.31;4128061;28;19999;-69
2023/05/23 03:17:20;;;;;;;;;;;;;;;18.51;67.80;100519.22;4127866;28;19928;-69
2023/05/23 03:19:23;;;;;;;;;;;;;;;18.60;67.38;100518.19;4128497;28;19921;-69
2023/05/23 03:21:26;;;;;;;;;;;;;;;18.64;66.96;100511.97;4117860;28;19934;-70
2023/05/23 03:23:30;;;;;;;;;;;;;;;18.57;66.98;100515.59;4135820;28;19928;-69
2023/05/23 03:25:32;;;;;;;;;;;;;;;18.84;66.16;100520.34;4130862;28;19929;-68
2023/05/23 03:27:35;;;;;;;;;;;;;;;18.46;67.45;100519.28;4139165;28;19947;-68
2023/05/23 03:29:38;;;;;;;;;;;;;;;18.43;67.33;100523.75;4127767;28;19940;-68
2023/05/23 03:31:40;;;;;;;;;;;;;;;18.33;67.39;100533.56;4127743;28;19926;-68
2023/05/23 03:33:43;;;;;;;;;;;;;;;18.27;67.81;100531.03;4118349;28;19928;-68
2023/05/23 03:35:46;;;;;;;;;;;;;;;18.33;67.66;100530.06;4140574;28;19929;-68
2023/05/23 03:37:49;;;;;;;;;;;;;;;18.35;66.96;100530.91;4123443;28;19954;-68
2023/05/23 03:39:53;;;;;;;;;;;;;;;18.41;66.91;100529.06;4123832;28;19981;-68
2023/05/23 03:41:55;;;;;;;;;;;;;;;18.44;66.60;100534.25;4125048;28;19925;-68
2023/05/23 03:43:59;;;;;;;;;;;;;;;18.35;66.36;100536.16;4120144;28;20399;-68
2023/05/23 03:46:02;;;;;;;;;;;;;;;18.39;66.50;100545.75;4127599;28;20170;-69
2023/05/23 03:48:05;;;;;;;;;;;;;;;18.51;65.60;100534.16;4127354;28;19968;-69
2023/05/23 03:50:08;;;;;;;;;;;;;;;18.22;66.96;100543.41;4128559;28;20343;-69
2023/05/23 03:52:11;;;;;;;;;;;;;;;18.17;67.16;100546.09;4141430;28;19921;-69
2023/05/23 03:54:16;;;;;;;;;;;;;;;18.18;67.04;100545.22;4124921;28;19926;-72
2023/05/23 03:56:20;;;;;;;;;;;;;;;18.11;67.22;100543.56;4144726;28;20004;-70
2023/05/23 03:58:23;;;;;;;;;;;;;;;18.03;67.00;100542.81;4135272;28;19926;-70
2023/05/23 04:00:29;;;;;;;;;;;;;;;18.24;66.44;100546.88;4123382;28;19921;-70
2023/05/23 04:02:34;;;;;;;;;;;;;;;18.12;66.66;100551.44;4138617;28;20482;-70
2023/05/23 04:04:38;;;;;;;;;;;;;;;18.14;66.54;100547.00;4137064;28;19928;-70
2023/05/23 04:06:41;;;;;;;;;;;;;;;18.27;66.11;100550.31;4121115;28;20379;-72
2023/05/23 04:08:44;;;;;;;;;;;;;;;18.20;65.80;100555.72;4129190;28;19972;-70
2023/05/23 04:10:46;;;;;;;;;;;;;;;18.08;66.34;100557.63;4130284;28;19922;-70
2023/05/23 04:12:50;;;;;;;;;;;;;;;18.06;66.44;100558.56;4112168;28;19969;-70
2023/05/23 04:14:53;;;;;;;;;;;;;;;18.30;65.35;100559.94;4129954;28;20405;-70
2023/05/23 04:16:56;;;;;;;;;;;;;;;18.11;65.65;100562.00;4130386;28;20406;-70
2023/05/23 04:18:59;;;;;;;;;;;;;;;18.13;65.38;100563.69;4129551;28;19925;-69
2023/05/23 04:21:02;;;;;;;;;;;;;;;18.21;64.98;100567.97;4113575;28;19930;-69
2023/05/23 04:23:37;;;;;;;;;;;;;;;18.19;65.10;100570.63;4137914;28;20414;-69
2023/05/23 04:25:43;;;;;;;;;;;;;;;18.09;64.58;100569.03;4130148;28;20047;-69
2023/05/23 04:27:54;;;;;;;;;;;;;;;18.11;64.46;100573.38;4118075;28;19922;-70
2023/05/23 04:29:59;;;;;;;;;;;;;;;18.03;64.90;100579.66;4126813;28;20408;-70
2023/05/23 04:32:02;;;;;;;;;;;;;;;18.01;64.76;100579.66;4129859;28;19981;-70
2023/05/23 04:34:04;;;;;;;;;;;;;;;18.19;64.07;100573.25;4143371;28;19925;-70
2023/05/23 04:36:12;;;;;;;;;;;;;;;18.03;64.09;100577.88;4127709;28;19926;-70
2023/05/23 04:38:18;;;;;;;;;;;;;;;18.03;64.21;100583.13;4130174;28;20351;-70
2023/05/23 04:40:21;;;;;;;;;;;;;;;18.00;64.47;100584.94;4143825;28;20375;-69
2023/05/23 04:42:43;;;;;;;;;;;;;;;17.94;64.80;100580.66;4130927;28;19921;-70
2023/05/23 04:45:00;;;;;;;;;;;;;;;17.89;65.12;100590.34;4138625;28;19961;-69
2023/05/23 04:47:19;;;;;;;;;;;;;;;18.03;63.97;100591.03;4129541;28;20441;-69
2023/05/23 04:49:33;;;;;;;;;;;;;;;17.95;64.41;100599.03;4129166;28;19922;-70
2023/05/23 04:51:37;;;;;;;;;;;;;;;18.10;63.57;100597.94;4128136;28;19929;-70
2023/05/23 04:53:54;;;;;;;;;;;;;;;18.06;63.77;100588.38;4125676;28;20474;-70
2023/05/23 04:55:57;;;;;;;;;;;;;;;17.91;64.12;100602.59;4129467;28;19983;-70
2023/05/23 04:58:00;;;;;;;;;;;;;;;18.06;63.86;100605.91;4130298;28;19921;-72
2023/05/23 05:00:09;;;;;;;;;;;;;;;18.12;63.27;100606.69;4113752;28;20433;-70
2023/05/23 05:02:12;;;;;;;;;;;;;;;18.04;63.77;100603.28;4127985;28;19922;-70
2023/05/23 05:04:15;;;;;;;;;;;;;;;18.17;63.69;100606.63;4139082;28;20401;-70
2023/05/23 05:06:20;;;;;;;;;;;;;;;18.03;64.01;100606.81;4129571;28;19922;-70
2023/05/23 05:08:23;;;;;;;;;;;;;;;18.08;63.77;100620.78;4128571;28;19921;-71
2023/05/23 05:10:26;;;;;;;;;;;;;;;18.19;63.47;100610.09;4106689;28;19929;-70
2023/05/23 05:12:29;;;;;;;;;;;;;;;18.22;63.29;100611.81;4119495;28;19922;-70
2023/05/23 05:14:32;;;;;;;;;;;;;;;18.28;62.96;100614.34;4128947;28;19928;-70
2023/05/23 05:16:36;;;;;;;;;;;;;;;18.20;63.70;100618.88;4144367;28;20467;-70
2023/05/23 05:18:39;;;;;;;;;;;;;;;18.48;61.42;100619.31;4128659;28;20437;-70
2023/05/23 05:20:42;;;;;;;;;;;;;;;18.40;61.98;100616.81;4143588;28;20402;-69
2023/05/23 05:22:45;;;;;;;;;;;;;;;18.38;61.55;100629.09;4118828;28;20391;-69
2023/05/23 05:24:48;;;;;;;;;;;;;;;18.38;61.67;100634.38;4120636;28;19957;-69
2023/05/23 05:26:51;;;;;;;;;;;;;;;18.26;61.70;100627.53;4142250;28;20387;-69
2023/05/23 05:28:54;;;;;;;;;;;;;;;18.42;61.11;100624.69;4118665;28;19944;-69
2023/05/23 05:30:57;;;;;;;;;;;;;;;18.49;61.01;100632.44;4128971;28;20450;-70
2023/05/23 05:33:02;;;;;;;;;;;;;;;18.49;60.41;100635.06;4125890;28;19945;-69
2023/05/23 05:35:07;;;;;;;;;;;;;;;18.29;61.83;100645.91;4128640;28;20383;-69
2023/05/23 05:37:12;;;;;;;;;;;;;;;18.29;61.28;100642.41;4117722;28;19926;-70
2023/05/23 05:39:16;;;;;;;;;;;;;;;18.11;61.08;100646.19;4129214;28;20343;-71
2023/05/23 05:41:19;;;;;;;;;;;;;;;18.37;59.70;100647.56;4128947;28;19968;-69
2023/05/23 05:43:25;;;;;;;;;;;;;;;18.19;60.86;100652.19;4170783;22;20393;-66
2023/05/23 05:45:28;;;;;;;;;;;;;;;18.18;61.25;100657.47;4145056;28;20020;-65
2023/05/23 05:47:31;;;;;;;;;;;;;;;18.11;61.00;100656.72;4142498;28;19921;-66
2023/05/23 05:49:35;;;;;;;;;;;;;;;18.03;61.66;100651.53;4142986;28;19973;-66
2023/05/23 05:51:38;;;;;;;;;;;;;;;18.03;61.12;100654.16;4161081;28;19925;-66
2023/05/23 05:53:41;;;;;;;;;;;;;;;18.25;60.81;100664.41;4139717;28;19969;-67
2023/05/23 05:55:44;;;;;;;;;;;;;;;18.31;59.69;100653.78;4147912;28;19928;-66
2023/05/23 05:57:46;;;;;;;;;;;;;;;18.24;60.41;100657.41;4132018;28;19929;-66
2023/05/23 05:59:51;;;;;;;;;;;;;;;18.19;60.65;100661.84;4113896;28;19996;-67
2023/05/23 06:01:53;;;;;;;;;;;;;;;18.24;60.84;100660.91;4128478;28;19926;-67
2023/05/23 06:03:57;;;;;;;;;;;;;;;18.30;60.60;100679.22;4121608;28;20659;-66
2023/05/23 06:06:02;;;;;;;;;;;;;;;18.47;60.48;100665.84;4129056;28;20004;-66
2023/05/23 06:08:05;;;;;;;;;;;;;;;18.60;59.94;100673.53;4116480;28;20364;-66
2023/05/23 06:10:11;;;;;;;;;;;;;;;18.62;59.18;100675.25;4130485;28;19930;-67
2023/05/23 06:12:14;;;;;;;;;;;;;;;18.60;59.16;100687.59;4116547;28;19921;-66
2023/05/23 06:14:17;;;;;;;;;;;;;;;18.82;58.89;100685.47;4136103;28;20024;-67
2023/05/23 06:16:21;;;;;;;;;;;;;;;18.72;58.76;100694.44;4138127;28;19929;-67
2023/05/23 06:18:25;;;;;;;;;;;;;;;18.68;58.41;100690.09;4134446;28;20020;-66
2023/05/23 06:20:27;;;;;;;;;;;;;;;18.40;59.26;100689.63;4136237;28;20275;-67
2023/05/23 06:22:33;;;;;;;;;;;;;;;18.37;59.00;100695.81;4139566;28;19921;-66
2023/05/23 06:24:36;;;;;;;;;;;;;;;18.31;59.25;100690.63;4131565;28;19987;-66
2023/05/23 06:26:38;;;;;;;;;;;;;;;18.34;59.19;100690.59;4128872;28;19925;-66
2023/05/23 06:28:43;;;;;;;;;;;;;;;18.37;59.58;100701.09;4138990;28;20020;-66
2023/05/23 06:30:45;;;;;;;;;;;;;;;18.47;58.90;100707.97;4140896;28;20368;-67
2023/05/23 06:32:48;;;;;;;;;;;;;;;18.31;59.16;100702.03;4133617;28;19961;-66
2023/05/23 06:34:53;;;;;;;;;;;;;;;18.29;59.11;100702.94;4138188;28;19968;-66
2023/05/23 06:36:55;;;;;;;;;;;;;;;18.35;59.39;100699.34;4141722;28;20016;-65
2023/05/23 06:39:00;;;;;;;;;;;;;;;18.23;59.49;100717.06;4139206;28;19980;-66
2023/05/23 06:41:05;;;;;;;;;;;;;;;18.37;59.27;100714.25;4127849;28;20299;-66
2023/05/23 06:43:09;;;;;;;;;;;;;;;18.23;60.10;100722.31;4136495;28;20313;-66
2023/05/23 06:45:27;;;;;;;;;;;;;;;18.23;59.78;100719.69;4138536;28;20490;-67
2023/05/23 06:47:30;;;;;;;;;;;;;;;18.27;59.79;100720.53;4134089;28;21237;-69
2023/05/23 06:49:33;;;;;;;;;;;;;;;18.24;59.86;100718.81;4140670;28;20007;-67
2023/05/23 06:51:36;;;;;;;;;;;;;;;18.22;59.34;100727.59;4134437;28;20016;-67
2023/05/23 06:53:39;;;;;;;;;;;;;;;18.13;59.61;100729.44;4133571;28;20425;-67
2023/05/23 06:55:44;;;;;;;;;;;;;;;18.12;59.76;100726.84;4157307;28;19926;-69
2023/05/23 06:57:50;;;;;;;;;;;;;;;18.12;60.33;100730.38;4154484;28;20452;-67
2023/05/23 06:59:55;;;;;;;;;;;;;;;18.03;60.13;100727.81;4135856;28;20422;-68
2023/05/23 07:01:58;;;;;;;;;;;;;;;18.08;60.39;100736.53;4138618;28;20008;-67
2023/05/23 07:04:01;;;;;;;;;;;;;;;18.01;60.74;100736.66;4138844;28;19929;-67
2023/05/23 07:06:04;;;;;;;;;;;;;;;18.12;60.72;100740.88;4120718;28;20411;-67
2023/05/23 07:08:09;;;;;;;;;;;;;;;18.08;60.55;100736.53;4134580;28;20384;-67
2023/05/23 07:10:12;;;;;;;;;;;;;;;18.20;60.13;100742.56;4139232;28;19933;-67
2023/05/23 07:12:17;;;;;;;;;;;;;;;18.17;60.24;100735.56;4120926;28;20282;-67
2023/05/23 07:14:22;;;;;;;;;;;;;;;18.05;60.50;100741.00;4139087;28;20591;-67
2023/05/23 07:16:25;;;;;;;;;;;;;;;18.11;60.77;100749.66;4139922;28;19926;-67
2023/05/23 07:18:35;;;;;;;;;;;;;;;18.25;60.00;100749.50;4153011;28;20008;-67
2023/05/23 07:20:40;;;;;;;;;;;;;;;18.19;59.93;100748.69;4136406;28;19992;-67
2023/05/23 07:22:51;;;;;;;;;;;;;;;18.22;59.93;100746.88;4127792;28;19925;-67
2023/05/23 07:24:54;;;;;;;;;;;;;;;18.10;59.73;100749.69;4154820;28;20043;-67
2023/05/23 07:27:01;;;;;;;;;;;;;;;18.05;59.71;100751.50;4141947;28;20595;-67
2023/05/23 07:29:05;;;;;;;;;;;;;;;18.07;59.65;100745.31;4141112;28;20306;-67
2023/05/23 07:31:09;;;;;;;;;;;;;;;18.07;60.32;100744.47;4138987;28;19930;-67
2023/05/23 07:33:13;;;;;;;;;;;;;;;18.09;59.62;100748.81;4126126;28;20012;-67
2023/05/23 07:35:17;;;;;;;;;;;;;;;18.12;59.78;100738.25;4126657;28;19968;-67
2023/05/23 07:37:20;;;;;;;;;;;;;;;18.14;59.76;100744.34;4138478;28;21318;-67
2023/05/23 07:39:23;;;;;;;;;;;;;;;18.26;59.28;100753.84;4144439;28;19944;-67
2023/05/23 07:41:28;;;;;;;;;;;;;;;18.34;58.47;100751.16;4143713;28;19961;-67
2023/05/23 07:43:31;;;;;;;;;;;;;;;18.30;58.98;100752.06;4141286;28;20332;-67
2023/05/23 07:45:35;;;;;;;;;;;;;;;18.34;59.22;100755.50;4125209;28;19965;-68
2023/05/23 07:47:38;;;;;;;;;;;;;;;18.42;59.24;100756.28;4131035;28;20028;-68
2023/05/23 07:49:40;;;;;;;;;;;;;;;18.57;58.14;100755.22;4130634;28;19973;-67
2023/05/23 07:51:43;;;;;;;;;;;;;;;18.61;56.33;100746.38;4150281;28;19968;-67
2023/05/23 07:53:46;;;;;;;;;;;;;;;18.62;56.54;100751.63;4144855;28;20059;-67
2023/05/23 07:55:49;;;;;;;;;;;;;;;18.48;57.83;100754.44;4123411;28;19960;-67
2023/05/23 07:57:53;;;;;;;;;;;;;;;18.61;56.94;100754.28;4137957;28;20449;-67
2023/05/23 07:59:56;;;;;;;;;;;;;;;18.72;56.86;100765.53;4136489;28;19968;-67
2023/05/23 08:02:01;;;;;;;;;;;;;;;18.72;55.78;100760.25;4146524;28;20040;-67
2023/05/23 08:04:05;;;;;;;;;;;;;;;18.66;55.87;100762.97;4133306;28;19925;-68
2023/05/23 08:06:13;;;;;;;;;;;;;;;18.77;55.52;100763.69;4154199;28;20346;-67
2023/05/23 08:08:16;;;;;;;;;;;;;;;18.76;54.72;100761.97;4156163;28;19998;-67
2023/05/23 08:10:19;;;;;;;;;;;;;;;18.77;54.99;100763.69;4156905;28;19921;-67
2023/05/23 08:12:32;;;;;;;;;;;;;;;18.76;54.51;100767.25;4142740;28;20151;-67
2023/05/23 08:14:42;;;;;;;;;;;;;;;18.69;54.81;100770.84;4138341;28;19928;-67
2023/05/23 08:16:59;;;;;;;;;;;;;;;18.67;54.16;100768.25;4141972;28;20342;-67
2023/05/23 08:19:04;;;;;;;;;;;;;;;18.72;54.57;100770.81;4140591;28;20403;-68
2023/05/23 08:21:08;;;;;;;;;;;;;;;18.66;54.49;100773.50;4141363;28;19921;-67
2023/05/23 08:23:11;;;;;;;;;;;;;;;18.63;55.15;100765.66;4142355;28;20438;-67
2023/05/23 08:25:14;;;;;;;;;;;;;;;18.62;54.56;100763.94;4137351;28;19961;-67
2023/05/23 08:27:17;;;;;;;;;;;;;;;18.57;54.86;100755.22;4140926;28;19922;-67
2023/05/23 08:29:22;;;;;;;;;;;;;;;18.67;54.50;100767.34;4132067;28;20379;-68
2023/05/23 08:31:26;;;;;;;;;;;;;;;18.55;55.00;100768.41;4134334;28;19921;-67
2023/05/23 08:33:29;;;;;;;;;;;;;;;18.40;55.59;100765.97;4151911;28;19928;-67
2023/05/23 08:35:35;;;;;;;;;;;;;;;18.46;56.03;100772.03;4141918;28;19943;-67
2023/05/23 08:37:41;;;;;;;;;;;;;;;18.50;55.96;100767.59;4137228;28;20290;-67
2023/05/23 08:39:46;;;;;;;;;;;;;;;18.50;56.19;100770.25;4139147;28;20395;-68
2023/05/23 08:42:12;;;;;;;;;;;;;;;18.56;56.95;100766.63;4135190;28;19926;-68
2023/05/23 08:44:15;;;;;;;;;;;;;;;18.66;56.39;100770.88;4122056;28;19953;-67
2023/05/23 08:46:24;;;;;;;;;;;;;;;18.66;56.71;100765.59;4143814;28;19921;-68
2023/05/23 08:48:28;;;;;;;;;;;;;;;18.95;55.88;100764.34;4141756;28;19922;-68
2023/05/23 08:50:31;;;;;;;;;;;;;;;19.04;56.51;100758.94;4138183;28;20319;-68
2023/05/23 08:52:37;;;;;;;;;;;;;;;19.15;55.97;100767.50;4125945;28;19949;-68
2023/05/23 08:54:41;;;;;;;;;;;;;;;19.38;54.88;100760.09;4119569;28;19943;-68
2023/05/23 08:56:43;;;;;;;;;;;;;;;19.44;54.94;100757.38;4141896;28;19933;-68
2023/05/23 08:58:47;;;;;;;;;;;;;;;19.73;54.41;100764.75;4145961;28;19925;-68
2023/05/23 09:00:54;;;;;;;;;;;;;;;20.15;52.48;100756.94;4135165;28;20235;-67
2023/05/23 09:02:58;;;;;;;;;;;;;;;20.30;52.61;100762.81;4140128;28;19922;-68
2023/05/23 09:05:16;;;;;;;;;;;;;;;20.54;52.16;100767.50;4125940;28;19933;-68
2023/05/23 09:07:19;;;;;;;;;;;;;;;20.64;52.15;100769.97;4143772;28;20008;-68
2023/05/23 09:09:25;;;;;;;;;;;;;;;20.66;52.21;100763.78;4136819;28;19921;-68
2023/05/23 09:11:28;;;;;;;;;;;;;;;20.89;50.67;100762.38;4142814;28;19921;-68
2023/05/23 09:13:32;;;;;;;;;;;;;;;20.96;50.89;100760.47;4136160;28;20312;-68
2023/05/23 09:15:37;;;;;;;;;;;;;;;20.92;51.22;100760.53;4138414;28;19922;-68
2023/05/23 09:17:40;;;;;;;;;;;;;;;21.11;50.59;100762.72;4137809;28;19921;-68
2023/05/23 09:19:45;;;;;;;;;;;;;;;20.82;51.03;100763.41;4135827;28;20384;-68
2023/05/23 09:22:15;;;;;;;;;;;;;;;20.64;50.93;100764.69;4138831;28;19925;-68
2023/05/23 09:24:38;;;;;;;;;;;;;;;20.32;52.18;100766.25;4138079;28;19926;-68
2023/05/23 09:26:46;;;;;;;;;;;;;;;20.18;52.57;100775.34;4141718;28;19925;-68
2023/05/23 09:28:49;;;;;;;;;;;;;;;20.08;52.85;100765.00;4145299;28;19944;-68
2023/05/23 09:30:57;;;;;;;;;;;;;;;20.11;52.99;100776.38;4153259;28;19921;-67
2023/05/23 09:33:01;;;;;;;;;;;;;;;20.10;52.62;100771.97;4140639;28;19921;-68
2023/05/23 09:35:11;;;;;;;;;;;;;;;19.95;53.07;100772.31;4138176;28;19921;-68
2023/05/23 09:37:17;;;;;;;;;;;;;;;19.98;52.56;100766.97;4120177;28;20481;-68
2023/05/23 09:39:20;;;;;;;;;;;;;;;19.70;53.55;100763.06;4110702;28;20012;-69
2023/05/23 09:41:25;;;;;;;;;;;;;;;19.91;53.10;100762.72;4143068;28;19956;-69
2023/05/23 09:43:28;;;;;;;;;;;;;;;20.26;52.65;100772.53;4127250;28;20322;-68
2023/05/23 09:45:31;;;;;;;;;;;;;;;20.58;51.51;100776.25;4135063;28;19922;-68
2023/05/23 09:47:36;;;;;;;;;;;;;;;20.92;50.89;100765.81;4144044;28;20075;-68
2023/05/23 09:49:39;;;;;;;;;;;;;;;20.77;51.39;100763.53;4122331;28;19930;-68
2023/05/23 09:51:42;;;;;;;;;;;;;;;20.69;51.10;100762.81;4143702;28;19925;-68
2023/05/23 09:53:45;;;;;;;;;;;;;;;20.57;52.09;100767.47;4137175;28;19931;-68
2023/05/23 09:55:48;;;;;;;;;;;;;;;20.72;51.76;100765.41;4139785;28;19957;-68
2023/05/23 09:57:55;;;;;;;;;;;;;;;20.92;51.21;100771.13;4137818;28;20004;-68
2023/05/23 09:59:58;;;;;;;;;;;;;;;20.85;50.76;100776.56;4135029;28;19976;-68
2023/05/23 10:02:02;;;;;;;;;;;;;;;20.80;50.59;100778.44;4141603;28;19930;-68
2023/05/23 10:04:06;;;;;;;;;;;;;;;20.58;51.47;100771.84;4139792;28;19973;-68
2023/05/23 10:06:12;;;;;;;;;;;;;;;20.37;52.42;100777.56;4142069;28;19976;-68
2023/05/23 10:08:18;;;;;;;;;;;;;;;20.39;52.74;100773.16;4140603;28;20459;-67
2023/05/23 10:10:21;;;;;;;;;;;;;;;20.43;52.23;100779.22;4134868;28;20455;-68
2023/05/23 10:12:44;;;;;;;;;;;;;;;20.19;52.96;100784.13;4139761;28;20363;-68
2023/05/23 10:14:51;;;;;;;;;;;;;;;20.23;51.82;100785.81;4143938;28;19968;-67
2023/05/23 10:16:59;;;;;;;;;;;;;;;20.09;52.12;100786.06;4137193;28;20012;-68
2023/05/23 10:19:06;;;;;;;;;;;;;;;19.99;52.49;100792.44;4135136;28;20387;-67
2023/05/23 10:21:11;;;;;;;;;;;;;;;19.92;52.96;100794.34;4139625;28;19962;-68
2023/05/23 10:23:15;;;;;;;;;;;;;;;19.68;53.61;100807.06;4136005;28;19922;-67
2023/05/23 10:25:18;;;;;;;;;;;;;;;19.38;54.56;100799.66;4136222;28;20447;-68
2023/05/23 10:27:21;;;;;;;;;;;;;;;19.36;54.88;100800.56;4141676;28;20272;-67
2023/05/23 10:29:24;;;;;;;;;;;;;;;19.27;55.23;100799.84;4133460;28;20008;-68
2023/05/23 10:31:29;;;;;;;;;;;;;;;19.14;55.99;100797.44;4134779;28;19926;-69
2023/05/23 10:33:36;;;;;;;;;;;;;;;19.24;55.96;100794.63;4138675;28;19925;-68
2023/05/23 10:35:42;;;;;;;;;;;;;;;19.42;55.90;100794.34;4135703;28;20384;-68
2023/05/23 10:37:49;;;;;;;;;;;;;;;19.56;55.32;100802.00;4139082;28;20008;-68
2023/05/23 10:39:57;;;;;;;;;;;;;;;19.65;55.34;100800.94;4137487;28;19932;-68